createdAt,value
2023-05-21T00:00:17.833Z,98243.23
2023-05-21T00:03:14.567Z,98241.75
2023-05-21T00:05:45.640Z,98234.27
2023-05-21T00:08:15.018Z,98234.09
2023-05-21T00:10:44.603Z,98237.18
2023-05-21T00:13:14.260Z,98235.86
2023-05-21T00:15:43.834Z,98235.28
2023-05-21T00:18:13.012Z,98233.33
2023-05-21T00:20:42.279Z,98234.67
2023-05-21T00:23:11.895Z,98228.14
2023-05-21T00:25:41.281Z,98231.25
2023-05-21T00:28:10.448Z,98237.77
2023-05-21T00:30:40.396Z,98237.14
2023-05-21T00:33:11.019Z,98233.94
2023-05-21T00:35:41.070Z,98228.45
2023-05-21T00:38:10.095Z,98224.47
2023-05-21T00:40:41.829Z,98227.02
2023-05-21T00:43:12.269Z,98226.28
2023-05-21T00:45:47.271Z,98225.24
2023-05-21T00:48:16.859Z,98218.17
2023-05-21T00:50:47.752Z,98219.23
2023-05-21T00:53:20.270Z,98217.27
2023-05-21T00:55:51.405Z,98219.55
2023-05-21T00:58:21.373Z,98215.49
2023-05-21T01:00:51.144Z,98212.21
2023-05-21T01:03:21.102Z,98212.14
2023-05-21T01:05:54.098Z,98206.52
2023-05-21T01:08:23.459Z,98201.81
2023-05-21T01:10:53.701Z,98198.81
2023-05-21T01:13:24.995Z,98192.54
2023-05-21T01:15:55.303Z,98185.38
2023-05-21T01:18:25.035Z,98189.83
2023-05-21T01:20:55.821Z,98183.61
2023-05-21T01:23:26.352Z,98174.55
2023-05-21T01:25:55.535Z,98173.67
2023-05-21T01:28:25.853Z,98173.36
2023-05-21T01:30:57.063Z,98165.17
2023-05-21T01:33:37.085Z,98166.52
2023-05-21T01:36:27.189Z,98162.30
2023-05-21T01:39:24.483Z,98165.33
2023-05-21T01:41:55.544Z,98170.57
2023-05-21T01:44:27.120Z,98165.33
2023-05-21T01:46:58.403Z,98164.63
2023-05-21T01:49:28.091Z,98162.98
2023-05-21T01:51:57.749Z,98166.08
2023-05-21T01:54:26.471Z,98165.77
2023-05-21T01:56:56.277Z,98167.19
2023-05-21T01:59:25.470Z,98160.27
2023-05-21T02:01:54.535Z,98160.59
2023-05-21T02:04:23.303Z,98167.27
2023-05-21T02:06:52.489Z,98166.55
2023-05-21T02:09:22.276Z,98162.45
2023-05-21T02:11:51.855Z,98161.08
2023-05-21T02:14:21.179Z,98157.97
2023-05-21T02:16:51.222Z,98158.10
2023-05-21T02:19:21.081Z,98160.02
2023-05-21T02:21:50.699Z,98158.52
2023-05-21T02:24:20.293Z,98152.48
2023-05-21T02:26:51.616Z,98149.20
2023-05-21T02:29:21.333Z,98152.61
2023-05-21T02:31:52.069Z,98152.85
2023-05-21T02:34:21.508Z,98154.84
2023-05-21T02:36:54.786Z,98151.95
2023-05-21T02:39:24.608Z,98138.74
2023-05-21T02:41:53.714Z,98138.59
2023-05-21T02:44:24.588Z,98134.94
2023-05-21T02:46:54.091Z,98140.64
2023-05-21T02:49:23.438Z,98130.53
2023-05-21T02:51:52.972Z,98137.28
2023-05-21T02:54:22.216Z,98130.70
2023-05-21T02:56:52.096Z,98123.77
2023-05-21T02:59:21.436Z,98121.48
2023-05-21T03:01:51.059Z,98122.91
2023-05-21T03:04:22.341Z,98128.58
2023-05-21T03:06:55.755Z,98125.87
2023-05-21T03:09:25.263Z,98125.56
2023-05-21T03:11:54.428Z,98123.65
2023-05-21T03:14:25.529Z,98119.92
2023-05-21T03:16:54.634Z,98120.32
2023-05-21T03:19:25.435Z,98120.63
2023-05-21T03:21:55.459Z,98119.44
2023-05-21T03:24:24.642Z,98118.95
2023-05-21T03:26:54.181Z,98122.27
2023-05-21T03:29:23.689Z,98131.80
2023-05-21T03:31:54.631Z,98131.95
2023-05-21T03:34:24.408Z,98133.05
2023-05-21T03:36:53.625Z,98130.18
2023-05-21T03:39:22.778Z,98130.23
2023-05-21T03:41:51.843Z,98127.92
2023-05-21T03:44:20.648Z,98129.36
2023-05-21T03:46:49.580Z,98129.76
2023-05-21T03:49:18.488Z,98127.05
2023-05-21T03:51:47.473Z,98125.46
2023-05-21T03:54:16.460Z,98126.11
2023-05-21T03:56:45.375Z,98125.02
2023-05-21T03:59:14.565Z,98124.30
2023-05-21T04:01:44.197Z,98126.44
2023-05-21T04:04:13.679Z,98127.79
2023-05-21T04:06:43.076Z,98122.80
2023-05-21T04:09:13.076Z,98125.27
2023-05-21T04:11:42.015Z,98127.27
2023-05-21T04:14:11.151Z,98129.50
2023-05-21T04:16:40.226Z,98133.27
2023-05-21T04:19:09.408Z,98139.58
2023-05-21T04:21:38.578Z,98139.83
2023-05-21T04:24:07.680Z,98134.16
2023-05-21T04:26:36.649Z,98132.82
2023-05-21T04:29:05.753Z,98131.08
2023-05-21T04:31:34.963Z,98127.42
2023-05-21T04:34:04.779Z,98126.55
2023-05-21T04:36:34.576Z,98131.25
2023-05-21T04:39:03.659Z,98129.50
2023-05-21T04:41:33.267Z,98131.02
2023-05-21T04:44:02.514Z,98128.70
2023-05-21T04:46:31.780Z,98135.67
2023-05-21T04:49:04.242Z,98131.87
2023-05-21T04:51:33.838Z,98133.62
2023-05-21T04:54:04.136Z,98133.61
2023-05-21T04:56:33.188Z,98138.70
2023-05-21T04:59:05.230Z,98141.66
2023-05-21T05:01:35.919Z,98142.55
2023-05-21T05:04:07.006Z,98147.17
2023-05-21T05:06:36.629Z,98141.91
2023-05-21T05:09:05.578Z,98140.40
2023-05-21T05:11:35.259Z,98135.25
2023-05-21T05:14:04.766Z,98131.98
2023-05-21T05:16:36.116Z,98133.85
2023-05-21T05:19:05.471Z,98135.92
2023-05-21T05:21:35.067Z,98138.40
2023-05-21T05:24:04.472Z,98138.48
2023-05-21T05:26:33.751Z,98141.27
2023-05-21T05:29:02.608Z,98140.30
2023-05-21T05:31:31.845Z,98141.11
2023-05-21T05:34:01.220Z,98144.38
2023-05-21T05:36:30.598Z,98145.64
2023-05-21T05:38:59.615Z,98148.98
2023-05-21T05:41:28.677Z,98147.23
2023-05-21T05:43:58.385Z,98152.87
2023-05-21T05:46:27.914Z,98152.21
2023-05-21T05:48:57.111Z,98151.41
2023-05-21T05:51:26.380Z,98154.91
2023-05-21T05:53:55.388Z,98152.92
2023-05-21T05:56:24.497Z,98153.95
2023-05-21T05:58:53.789Z,98154.80
2023-05-21T06:01:25.584Z,98152.73
2023-05-21T06:03:55.021Z,98151.74
2023-05-21T06:06:25.234Z,98155.38
2023-05-21T06:08:55.078Z,98151.67
2023-05-21T06:11:24.270Z,98150.16
2023-05-21T06:13:56.016Z,98146.86
2023-05-21T06:16:25.062Z,98148.13
2023-05-21T06:18:54.453Z,98145.43
2023-05-21T06:21:23.486Z,98147.08
2023-05-21T06:23:52.435Z,98147.09
2023-05-21T06:26:22.578Z,98152.45
2023-05-21T06:28:51.845Z,98145.89
2023-05-21T06:31:23.066Z,98151.96
2023-05-21T06:33:52.548Z,98154.35
2023-05-21T06:36:22.169Z,98151.55
2023-05-21T06:38:51.517Z,98153.45
2023-05-21T06:41:21.593Z,98152.42
2023-05-21T06:43:50.847Z,98148.61
2023-05-21T06:46:20.031Z,98153.02
2023-05-21T06:48:49.427Z,98156.13
2023-05-21T06:51:19.304Z,98150.13
2023-05-21T06:53:48.684Z,98150.71
2023-05-21T06:56:17.780Z,98148.79
2023-05-21T06:58:47.067Z,98146.48
2023-05-21T07:01:17.194Z,98146.08
2023-05-21T07:03:46.651Z,98147.43
2023-05-21T07:06:16.058Z,98143.84
2023-05-21T07:08:46.026Z,98142.52
2023-05-21T07:11:16.479Z,98141.70
2023-05-21T07:13:45.935Z,98143.79
2023-05-21T07:16:18.281Z,98145.55
2023-05-21T07:18:47.770Z,98148.49
2023-05-21T07:21:17.484Z,98147.94
2023-05-21T07:23:47.647Z,98142.65
2023-05-21T07:26:17.204Z,98134.89
2023-05-21T07:28:46.867Z,98132.14
2023-05-21T07:31:16.079Z,98137.47
2023-05-21T07:33:46.362Z,98133.54
2023-05-21T07:36:15.697Z,98134.31
2023-05-21T07:38:45.437Z,98131.52
2023-05-21T07:41:15.521Z,98130.71
2023-05-21T07:43:46.448Z,98128.06
2023-05-21T07:46:15.747Z,98130.27
2023-05-21T07:48:45.023Z,98130.64
2023-05-21T07:51:14.246Z,98128.65
2023-05-21T07:53:43.898Z,98129.22
2023-05-21T07:56:13.141Z,98133.55
2023-05-21T07:58:44.427Z,98138.99
2023-05-21T08:01:14.584Z,98140.49
2023-05-21T08:03:44.463Z,98140.37
2023-05-21T08:06:13.957Z,98139.05
2023-05-21T08:08:43.451Z,98140.08
2023-05-21T08:11:12.641Z,98140.94
2023-05-21T08:13:42.102Z,98139.06
2023-05-21T08:16:12.116Z,98133.66
2023-05-21T08:18:41.774Z,98130.88
2023-05-21T08:21:11.227Z,98128.30
2023-05-21T08:23:41.140Z,98127.21
2023-05-21T08:26:10.369Z,98127.89
2023-05-21T08:28:40.553Z,98128.52
2023-05-21T08:31:09.829Z,98124.85
2023-05-21T08:33:39.575Z,98126.14
2023-05-21T08:36:09.478Z,98124.88
2023-05-21T08:38:38.851Z,98119.70
2023-05-21T08:41:09.393Z,98119.94
2023-05-21T08:43:39.808Z,98123.35
2023-05-21T08:46:10.489Z,98126.16
2023-05-21T08:48:40.295Z,98130.17
2023-05-21T08:51:09.966Z,98125.73
2023-05-21T08:53:39.340Z,98124.64
2023-05-21T08:56:08.712Z,98124.73
2023-05-21T08:58:38.580Z,98123.19
2023-05-21T09:01:08.038Z,98121.16
2023-05-21T09:03:41.725Z,98123.34
2023-05-21T09:06:14.542Z,98127.52
2023-05-21T09:08:46.449Z,98125.80
2023-05-21T09:11:16.147Z,98129.03
2023-05-21T09:13:47.027Z,98130.37
2023-05-21T09:16:17.424Z,98128.44
2023-05-21T09:18:47.104Z,98125.70
2023-05-21T09:21:33.492Z,98125.98
2023-05-21T09:24:02.994Z,98125.16
2023-05-21T09:26:32.344Z,98124.23
2023-05-21T09:29:02.031Z,98125.95
2023-05-21T09:31:33.473Z,98129.36
2023-05-21T09:34:04.395Z,98126.95
2023-05-21T09:36:38.328Z,98127.69
2023-05-21T09:39:07.916Z,98128.31
2023-05-21T09:41:39.256Z,98128.56
2023-05-21T09:44:08.796Z,98129.27
2023-05-21T09:46:42.667Z,98128.57
2023-05-21T09:49:26.919Z,98125.23
2023-05-21T09:51:59.834Z,98124.63
2023-05-21T09:54:34.479Z,98122.06
2023-05-21T09:57:04.366Z,98124.13
2023-05-21T09:59:40.464Z,98121.56
2023-05-21T10:02:38.082Z,98117.66
2023-05-21T10:05:11.272Z,98123.27
2023-05-21T10:07:43.650Z,98123.90
2023-05-21T10:10:15.599Z,98118.83
2023-05-21T10:12:48.665Z,98117.61
2023-05-21T10:15:23.065Z,98120.05
2023-05-21T10:17:54.061Z,98124.42
2023-05-21T10:20:23.183Z,98127.79
2023-05-21T10:22:53.715Z,98126.05
2023-05-21T10:25:27.385Z,98123.36
2023-05-21T10:27:57.914Z,98122.27
2023-05-21T10:30:27.679Z,98121.94
2023-05-21T10:32:59.182Z,98123.46
2023-05-21T10:35:29.854Z,98116.47
2023-05-21T10:38:02.172Z,98116.94
2023-05-21T10:40:31.912Z,98113.98
2023-05-21T10:43:09.477Z,98120.05
2023-05-21T10:46:01.524Z,98119.92
2023-05-21T10:48:41.572Z,98117.40
2023-05-21T10:51:43.850Z,98122.89
2023-05-21T10:54:29.758Z,98123.30
2023-05-21T10:57:20.460Z,98121.25
2023-05-21T10:59:51.898Z,98119.10
2023-05-21T11:02:22.208Z,98119.85
2023-05-21T11:05:02.803Z,98122.45
2023-05-21T11:07:57.028Z,98121.41
2023-05-21T11:10:41.707Z,98121.31
2023-05-21T11:13:17.366Z,98124.23
2023-05-21T11:16:00.326Z,98122.20
2023-05-21T11:18:40.026Z,98118.88
2023-05-21T11:21:22.683Z,98122.46
2023-05-21T11:23:57.853Z,98120.55
2023-05-21T11:26:30.225Z,98118.11
2023-05-21T11:29:07.358Z,98116.21
2023-05-21T11:31:41.088Z,98113.11
2023-05-21T11:34:30.896Z,98110.98
2023-05-21T11:37:22.181Z,98106.30
2023-05-21T11:39:53.431Z,98101.74
2023-05-21T11:42:39.635Z,98102.45
2023-05-21T11:45:10.826Z,98107.86
2023-05-21T11:47:43.345Z,98111.09
2023-05-21T11:50:15.462Z,98109.55
2023-05-21T11:52:46.484Z,98110.36
2023-05-21T11:55:17.021Z,98107.04
2023-05-21T11:57:48.749Z,98103.14
2023-05-21T12:00:19.159Z,98100.10
2023-05-21T12:02:53.655Z,98102.94
2023-05-21T12:05:24.377Z,98098.09
2023-05-21T12:07:56.897Z,98099.02
2023-05-21T12:10:27.278Z,98102.92
2023-05-21T12:12:58.059Z,98101.13
2023-05-21T12:15:29.470Z,98100.85
2023-05-21T12:17:59.645Z,98095.55
2023-05-21T12:20:29.580Z,98093.79
2023-05-21T12:22:59.893Z,98090.06
2023-05-21T12:25:31.012Z,98085.44
2023-05-21T12:28:02.041Z,98080.15
2023-05-21T12:30:32.141Z,98072.30
2023-05-21T12:33:03.934Z,98072.63
2023-05-21T12:35:33.365Z,98070.48
2023-05-21T12:38:04.240Z,98071.31
2023-05-21T12:40:41.706Z,98066.16
2023-05-21T12:43:11.512Z,98067.52
2023-05-21T12:45:41.375Z,98062.02
2023-05-21T12:48:12.929Z,98052.17
2023-05-21T12:50:44.707Z,98044.39
2023-05-21T12:53:15.429Z,98037.50
2023-05-21T12:55:46.614Z,98042.30
2023-05-21T12:58:17.932Z,98044.22
2023-05-21T13:00:48.129Z,98045.26
2023-05-21T13:03:17.851Z,98045.43
2023-05-21T13:05:48.731Z,98050.64
2023-05-21T13:08:18.741Z,98049.85
2023-05-21T13:10:49.578Z,98056.62
2023-05-21T13:13:19.494Z,98060.93
2023-05-21T13:15:51.031Z,98058.98
2023-05-21T13:18:24.114Z,98061.22
2023-05-21T13:20:53.309Z,98061.48
2023-05-21T13:23:23.665Z,98062.25
2023-05-21T13:25:53.260Z,98073.29
2023-05-21T13:28:24.523Z,98080.80
2023-05-21T13:30:55.892Z,98090.05
2023-05-21T13:33:25.417Z,98095.42
2023-05-21T13:35:54.831Z,98107.27
2023-05-21T13:38:24.525Z,98115.06
2023-05-21T13:40:55.508Z,98104.23
2023-05-21T13:43:24.794Z,98077.17
2023-05-21T13:45:54.468Z,98076.65
2023-05-21T13:48:24.158Z,98096.61
2023-05-21T13:50:54.874Z,98098.90
2023-05-21T13:53:25.328Z,98077.39
2023-05-21T13:55:55.509Z,98075.31
2023-05-21T13:58:25.342Z,98076.67
2023-05-21T14:00:55.589Z,98067.81
2023-05-21T14:03:25.603Z,98060.77
2023-05-21T14:05:56.886Z,98061.43
2023-05-21T14:08:28.745Z,98062.80
2023-05-21T14:10:58.670Z,98062.86
2023-05-21T14:13:28.336Z,98062.34
2023-05-21T14:15:58.306Z,98060.44
2023-05-21T14:18:32.273Z,98056.52
2023-05-21T14:21:02.735Z,98052.12
2023-05-21T14:23:32.768Z,98051.95
2023-05-21T14:26:03.270Z,98046.79
2023-05-21T14:28:33.064Z,98047.86
2023-05-21T14:31:04.897Z,98040.96
2023-05-21T14:33:36.803Z,98036.84
2023-05-21T14:36:06.924Z,98031.48
2023-05-21T14:38:36.986Z,98025.71
2023-05-21T14:41:08.491Z,98022.95
2023-05-21T14:43:38.907Z,98027.41
2023-05-21T14:46:10.514Z,98027.91
2023-05-21T14:48:40.880Z,98030.10
2023-05-21T14:51:10.380Z,98033.25
2023-05-21T14:53:40.870Z,98031.88
2023-05-21T14:56:11.726Z,98029.27
2023-05-21T14:58:41.756Z,98023.54
2023-05-21T15:01:11.497Z,98028.88
2023-05-21T15:03:41.905Z,98028.31
2023-05-21T15:06:13.215Z,98026.38
2023-05-21T15:08:43.252Z,98026.25
2023-05-21T15:11:12.996Z,98031.50
2023-05-21T15:13:42.479Z,98034.16
2023-05-21T15:16:12.994Z,98032.72
2023-05-21T15:18:44.560Z,98031.65
2023-05-21T15:21:14.780Z,98026.45
2023-05-21T15:23:44.284Z,98025.20
2023-05-21T15:26:14.248Z,98024.13
2023-05-21T15:28:44.173Z,98027.48
2023-05-21T15:31:14.234Z,98024.83
2023-05-21T15:33:44.470Z,98019.42
2023-05-21T15:36:13.993Z,98015.05
2023-05-21T15:38:44.293Z,98012.91
2023-05-21T15:41:14.463Z,98006.02
2023-05-21T15:43:45.935Z,98007.77
2023-05-21T15:46:17.484Z,98008.08
2023-05-21T15:48:48.031Z,98001.01
2023-05-21T15:51:19.402Z,98000.20
2023-05-21T15:53:50.653Z,98003.98
2023-05-21T15:56:20.339Z,98000.88
2023-05-21T15:58:49.871Z,98002.52
2023-05-21T16:01:19.807Z,97996.92
2023-05-21T16:03:49.367Z,97996.27
2023-05-21T16:06:20.765Z,97992.27
2023-05-21T16:08:51.000Z,97992.82
2023-05-21T16:11:21.335Z,97989.49
2023-05-21T16:13:51.081Z,97994.41
2023-05-21T16:16:24.356Z,97998.48
2023-05-21T16:18:55.010Z,98000.13
2023-05-21T16:21:24.664Z,98002.09
2023-05-21T16:23:54.139Z,98003.34
2023-05-21T16:26:23.380Z,98003.66
2023-05-21T16:28:52.801Z,98002.11
2023-05-21T16:31:23.403Z,98007.52
2023-05-21T16:33:52.931Z,98008.05
2023-05-21T16:36:22.719Z,98013.81
2023-05-21T16:38:53.531Z,98010.16
2023-05-21T16:41:23.488Z,98012.70
2023-05-21T16:43:54.733Z,98011.32
2023-05-21T16:46:24.355Z,98011.21
2023-05-21T16:48:54.178Z,98014.12
2023-05-21T16:51:23.730Z,98017.38
2023-05-21T16:53:53.000Z,98022.98
2023-05-21T16:56:22.487Z,98027.45
2023-05-21T16:58:53.036Z,98027.19
2023-05-21T17:01:22.444Z,98031.23
2023-05-21T17:03:52.182Z,98037.29
2023-05-21T17:06:22.198Z,98035.59
2023-05-21T17:08:51.658Z,98039.91
2023-05-21T17:11:22.337Z,98038.98
2023-05-21T17:13:53.383Z,98044.24
2023-05-21T17:16:25.682Z,98048.72
2023-05-21T17:18:56.512Z,98062.05
2023-05-21T17:21:27.496Z,98066.94
2023-05-21T17:23:57.467Z,98066.47
2023-05-21T17:26:27.130Z,98076.95
2023-05-21T17:28:57.088Z,98082.51
2023-05-21T17:31:28.114Z,98085.02
2023-05-21T17:33:59.235Z,98086.11
2023-05-21T17:36:30.901Z,98090.73
2023-05-21T17:39:02.722Z,98092.72
2023-05-21T17:41:34.439Z,98091.19
2023-05-21T17:44:04.209Z,98092.60
2023-05-21T17:46:34.442Z,98095.86
2023-05-21T17:49:04.441Z,98094.33
2023-05-21T17:51:34.709Z,98092.50
2023-05-21T17:54:07.891Z,98092.98
2023-05-21T17:56:41.442Z,98089.80
2023-05-21T17:59:12.410Z,98095.63
2023-05-21T18:01:42.818Z,98098.83
2023-05-21T18:04:13.179Z,98091.57
2023-05-21T18:06:44.053Z,98098.33
2023-05-21T18:09:16.144Z,98103.13
2023-05-21T18:11:45.602Z,98107.90
2023-05-21T18:14:15.051Z,98111.77
2023-05-21T18:16:45.589Z,98119.88
2023-05-21T18:19:15.301Z,98122.30
2023-05-21T18:21:46.806Z,98131.44
2023-05-21T18:24:16.969Z,98137.65
2023-05-21T18:26:47.163Z,98145.19
2023-05-21T18:29:16.902Z,98145.09
2023-05-21T18:31:47.487Z,98151.95
2023-05-21T18:34:18.459Z,98153.67
2023-05-21T18:36:49.399Z,98159.33
2023-05-21T18:39:25.144Z,98167.23
2023-05-21T18:42:11.575Z,98172.56
2023-05-21T18:44:46.165Z,98177.49
2023-05-21T18:47:16.352Z,98180.63
2023-05-21T18:49:46.360Z,98191.03
2023-05-21T18:52:16.164Z,98198.32
2023-05-21T18:54:46.155Z,98199.05
2023-05-21T18:57:16.320Z,98202.14
2023-05-21T18:59:45.735Z,98209.95
2023-05-21T19:02:15.587Z,98220.88
2023-05-21T19:04:45.554Z,98221.58
2023-05-21T19:07:16.879Z,98229.17
2023-05-21T19:09:46.084Z,98242.73
2023-05-21T19:12:15.436Z,98246.89
2023-05-21T19:14:45.728Z,98250.20
2023-05-21T19:17:17.024Z,98253.40
2023-05-21T19:19:47.562Z,98257.14
2023-05-21T19:22:19.227Z,98262.61
2023-05-21T19:24:49.805Z,98264.06
2023-05-21T19:27:20.059Z,98260.99
2023-05-21T19:29:50.086Z,98263.86
2023-05-21T19:32:21.715Z,98262.23
2023-05-21T19:34:52.802Z,98265.20
2023-05-21T19:37:23.515Z,98272.16
2023-05-21T19:39:53.887Z,98271.55
2023-05-21T19:42:24.115Z,98267.88
2023-05-21T19:44:54.810Z,98274.35
2023-05-21T19:47:25.058Z,98276.11
2023-05-21T19:49:57.347Z,98282.77
2023-05-21T19:52:26.958Z,98291.05
2023-05-21T19:55:04.867Z,98293.48
2023-05-21T19:57:36.488Z,98298.15
2023-05-21T20:00:11.718Z,98303.02
2023-05-21T20:02:42.904Z,98304.55
2023-05-21T20:05:13.423Z,98303.01
2023-05-21T20:07:44.851Z,98303.00
2023-05-21T20:10:14.920Z,98303.05
2023-05-21T20:12:45.677Z,98304.73
2023-05-21T20:15:16.072Z,98305.71
2023-05-21T20:17:45.793Z,98306.58
2023-05-21T20:20:17.952Z,98306.06
2023-05-21T20:22:47.786Z,98301.35
2023-05-21T20:25:17.211Z,98301.95
2023-05-21T20:27:47.229Z,98304.77
2023-05-21T20:30:17.413Z,98305.41
2023-05-21T20:32:47.686Z,98307.85
2023-05-21T20:35:17.482Z,98306.19
2023-05-21T20:37:47.843Z,98310.20
2023-05-21T20:40:19.857Z,98302.34
2023-05-21T20:42:52.375Z,98292.54
2023-05-21T20:45:22.588Z,98285.52
2023-05-21T20:47:52.499Z,98287.64
2023-05-21T20:50:26.457Z,98301.33
2023-05-21T20:52:55.460Z,98302.20
2023-05-21T20:55:24.974Z,98302.80
2023-05-21T20:57:54.374Z,98310.81
2023-05-21T21:00:23.744Z,98315.02
2023-05-21T21:02:53.476Z,98316.30
2023-05-21T21:05:24.630Z,98316.95
2023-05-21T21:07:55.894Z,98318.39
2023-05-21T21:10:25.814Z,98308.92
2023-05-21T21:12:55.321Z,98301.81
2023-05-21T21:15:24.904Z,98291.73
2023-05-21T21:17:54.444Z,98293.58
2023-05-21T21:20:23.524Z,98292.63
2023-05-21T21:22:52.869Z,98290.16
2023-05-21T21:25:22.604Z,98295.10
2023-05-21T21:27:51.748Z,98297.66
2023-05-21T21:30:21.681Z,98301.25
2023-05-21T21:32:52.619Z,98309.95
2023-05-21T21:35:22.599Z,98313.45
2023-05-21T21:37:52.221Z,98313.20
2023-05-21T21:40:21.553Z,98312.57
2023-05-21T21:42:51.012Z,98315.54
2023-05-21T21:45:19.993Z,98315.40
2023-05-21T21:47:49.714Z,98312.36
2023-05-21T21:50:18.863Z,98308.52
2023-05-21T21:52:49.601Z,98309.14
2023-05-21T21:55:19.644Z,98308.58
2023-05-21T21:57:49.808Z,98305.46
2023-05-21T22:00:19.515Z,98306.99
2023-05-21T22:02:48.815Z,98307.45
2023-05-21T22:05:18.800Z,98308.73
2023-05-21T22:07:48.375Z,98309.05
2023-05-21T22:10:18.922Z,98306.91
2023-05-21T22:12:48.524Z,98309.78
2023-05-21T22:15:29.036Z,98310.05
2023-05-21T22:17:58.633Z,98308.88
2023-05-21T22:20:33.687Z,98312.40
2023-05-21T22:23:02.685Z,98307.93
2023-05-21T22:25:32.217Z,98311.20
2023-05-21T22:28:02.221Z,98311.77
2023-05-21T22:30:31.454Z,98314.96
2023-05-21T22:33:01.523Z,98315.66
2023-05-21T22:35:30.933Z,98314.88
2023-05-21T22:38:00.523Z,98312.90
2023-05-21T22:40:30.692Z,98311.08
2023-05-21T22:43:02.964Z,98307.65
2023-05-21T22:45:32.227Z,98308.36
2023-05-21T22:48:07.267Z,98305.99
2023-05-21T22:50:36.730Z,98303.80
2023-05-21T22:53:07.321Z,98305.61
2023-05-21T22:55:36.816Z,98302.52
2023-05-21T22:58:06.321Z,98303.95
2023-05-21T23:00:35.900Z,98304.11
2023-05-21T23:03:05.498Z,98302.20
2023-05-21T23:05:34.861Z,98297.83
2023-05-21T23:08:03.801Z,98300.23
2023-05-21T23:10:33.117Z,98295.75
2023-05-21T23:13:02.535Z,98291.77
2023-05-21T23:15:31.517Z,98296.64
2023-05-21T23:18:01.334Z,98293.11
2023-05-21T23:20:30.652Z,98298.20
2023-05-21T23:22:59.722Z,98299.42
2023-05-21T23:25:28.357Z,98302.13
2023-05-21T23:27:57.842Z,98302.05
2023-05-21T23:30:26.978Z,98301.73
2023-05-21T23:32:56.066Z,98299.50
2023-05-21T23:35:25.372Z,98300.77
2023-05-21T23:37:54.129Z,98303.95
2023-05-21T23:40:23.353Z,98298.81
2023-05-21T23:42:52.285Z,98299.39
2023-05-21T23:45:21.396Z,98298.74
2023-05-21T23:47:50.284Z,98300.41
2023-05-21T23:50:19.750Z,98300.02
2023-05-21T23:52:48.917Z,98294.67
2023-05-21T23:55:18.222Z,98293.71
2023-05-21T23:57:47.241Z,98298.11
